Pittsboro, NC

6:33 AM EDT on August 20, 2014 (GMT -0400)
Williams | Change Station
CLOSE
Current Station
Airport
Location: Chapel Hill,
Elevation: 512 ft
Nearby Weather Stations

Elev 512 ft 35.93 °N, 79.06 °W | Updated 30 minutes ago

Overcast
Overcast
72 °F
Feels Like 72 °F
N
5
Wind Variable Wind from NE

Today
High -- | Low -- °F
--% Chance of Precip.
Yesterday
High -- | Low -- °F
Precip. -- in
6:39 AM 8:00 PM
Waning Crescent, 22% visible
Pressure 29.95 in
Visibility 5.0 miles
Clouds Overcast 400 ft
Dew Point 71 °F
Humidity 97%
Rainfall 0.00 in
Snow Depth Not available.
UV 0 out of 12
Pollen 6.40 out of 12
PM2.5 Good
Flu Activity Not available.
SPECI KIGX 201003Z AUTO 05004KT 5SM BR OVC004 22/22 A2995 RMK AO2 CIG 002V007 T02220217 TSNO

More Conditions Fewer Conditions

Pressure 29.95 in
Visibility 5.0 miles
Clouds Overcast 400 ft
Dew Point 71 °F
Humidity 97%
Rainfall 0.00 in
Snow Depth Not available.
UV 0 out of 12
Pollen 6.40 out of 12
PM2.5 Good
Flu Activity Not available.
SPECI KIGX 201003Z AUTO 05004KT 5SM BR OVC004 22/22 A2995 RMK AO2 CIG 002V007 T02220217 TSNO

More Conditions Fewer Conditions

10-Day Weather Forecast

Almanac

Astronomy

Aug. 20, 2014 Rise Set
Actual Time 6:39 AM EDT 8:00 PM EDT
Civil Twilight 6:12 AM EDT 8:26 PM EDT
Nautical Twilight 5:40 AM EDT 8:58 PM EDT
Astronomical Twilight 5:07 AM EDT 9:31 PM EDT
Moon 2:21 AM EDT 4:40 PM EDT
Length of Visible Light 14h 14m
Length of Day
13h 20m
Tomorrow will be 2m 2s shorter.
Waning Crescent, 22% of the Moon is Illuminated
Today
Waning Crescent
Aug 25
New
Sep 2
First Quarter
Sep 8
Full
Sep 15
Last Quarter

Today's Extremes

State Highs State Lows

Community

WunderPhotos

Upload Photos

1,745,604 photos uploaded!

Nearby

Air Quality

  Air Quality AQ Index Pollutant
Current Good
PM2.5
Wednesday Moderate
PM2.5
Wednesday Good
OZONE
Thursday Moderate
PM2.5
Thursday Good
OZONE
Friday Moderate
PM2.5
Friday Good
OZONE

Snow Depth

Station Depth Elevation
No new snow has been reported.

Earthquake Activity

City Distance Mag. Time & Date
No recent earthquake activity has been reported nearby.
Minimum magnitude displayed is 2.5.

Coastal Water Temperatures

Place Temperature
No Stations Reporting

Nearby Weather Stations